sensor_id;sensor_type;location;lat;lon;timestamp;temperature;humidity
78541;SHT31;67835;51.968;5.646;2023-02-18T00:02:14;13.2;71.9
78541;SHT31;67835;51.968;5.646;2023-02-18T00:04:44;13.2;71.9
78541;SHT31;67835;51.968;5.646;2023-02-18T00:07:14;13.2;71.9
78541;SHT31;67835;51.968;5.646;2023-02-18T00:09:43;13.2;72.0
78541;SHT31;67835;51.968;5.646;2023-02-18T00:12:14;13.2;72.0
78541;SHT31;67835;51.968;5.646;2023-02-18T00:14:44;13.1;72.1
78541;SHT31;67835;51.968;5.646;2023-02-18T00:17:13;13.1;72.2
78541;SHT31;67835;51.968;5.646;2023-02-18T00:19:43;13.1;72.3
78541;SHT31;67835;51.968;5.646;2023-02-18T00:22:12;13.1;72.4
78541;SHT31;67835;51.968;5.646;2023-02-18T00:24:42;13.0;72.6
78541;SHT31;67835;51.968;5.646;2023-02-18T00:27:14;13.0;72.6
78541;SHT31;67835;51.968;5.646;2023-02-18T00:29:45;13.0;72.6
78541;SHT31;67835;51.968;5.646;2023-02-18T00:32:15;13.0;72.7
78541;SHT31;67835;51.968;5.646;2023-02-18T00:34:45;12.9;72.8
78541;SHT31;67835;51.968;5.646;2023-02-18T00:37:15;12.9;72.8
78541;SHT31;67835;51.968;5.646;2023-02-18T00:39:45;12.9;72.8
78541;SHT31;67835;51.968;5.646;2023-02-18T00:42:15;12.9;72.9
78541;SHT31;67835;51.968;5.646;2023-02-18T00:44:45;12.9;72.9
78541;SHT31;67835;51.968;5.646;2023-02-18T00:47:17;12.9;72.9
78541;SHT31;67835;51.968;5.646;2023-02-18T00:49:47;12.8;73.1
78541;SHT31;67835;51.968;5.646;2023-02-18T00:52:17;12.8;73.0
78541;SHT31;67835;51.968;5.646;2023-02-18T00:54:47;12.8;72.9
78541;SHT31;67835;51.968;5.646;2023-02-18T00:57:17;12.8;72.8
78541;SHT31;67835;51.968;5.646;2023-02-18T00:59:47;12.8;72.8
78541;SHT31;67835;51.968;5.646;2023-02-18T01:02:17;12.8;72.9
78541;SHT31;67835;51.968;5.646;2023-02-18T01:04:46;12.8;72.9
78541;SHT31;67835;51.968;5.646;2023-02-18T01:07:16;12.7;73.0
78541;SHT31;67835;51.968;5.646;2023-02-18T01:09:46;12.7;73.2
78541;SHT31;67835;51.968;5.646;2023-02-18T01:12:16;12.7;73.4
78541;SHT31;67835;51.968;5.646;2023-02-18T01:14:46;12.7;73.5
78541;SHT31;67835;51.968;5.646;2023-02-18T01:17:15;12.7;73.7
78541;SHT31;67835;51.968;5.646;2023-02-18T01:19:45;12.6;73.8
78541;SHT31;67835;51.968;5.646;2023-02-18T01:22:15;12.6;73.9
78541;SHT31;67835;51.968;5.646;2023-02-18T01:24:46;12.6;74.0
78541;SHT31;67835;51.968;5.646;2023-02-18T01:27:16;12.6;74.0
78541;SHT31;67835;51.968;5.646;2023-02-18T01:29:46;12.6;74.1
78541;SHT31;67835;51.968;5.646;2023-02-18T01:32:16;12.6;74.2
78541;SHT31;67835;51.968;5.646;2023-02-18T01:34:45;12.6;74.3
78541;SHT31;67835;51.968;5.646;2023-02-18T01:37:17;12.6;74.4
78541;SHT31;67835;51.968;5.646;2023-02-18T01:39:47;12.6;74.5
78541;SHT31;67835;51.968;5.646;2023-02-18T01:42:23;12.6;74.5
78541;SHT31;67835;51.968;5.646;2023-02-18T01:44:54;12.6;74.6
78541;SHT31;67835;51.968;5.646;2023-02-18T01:47:28;12.7;74.6
78541;SHT31;67835;51.968;5.646;2023-02-18T01:49:58;12.7;74.6
78541;SHT31;67835;51.968;5.646;2023-02-18T01:52:28;12.7;74.9
78541;SHT31;67835;51.968;5.646;2023-02-18T01:55:01;12.7;74.7
78541;SHT31;67835;51.968;5.646;2023-02-18T01:57:35;12.8;74.5
78541;SHT31;67835;51.968;5.646;2023-02-18T02:00:10;12.8;74.3
78541;SHT31;67835;51.968;5.646;2023-02-18T02:02:46;12.8;74.2
78541;SHT31;67835;51.968;5.646;2023-02-18T02:05:17;12.9;74.3
78541;SHT31;67835;51.968;5.646;2023-02-18T02:07:51;12.9;74.2
78541;SHT31;67835;51.968;5.646;2023-02-18T02:10:24;12.9;74.2
78541;SHT31;67835;51.968;5.646;2023-02-18T02:13:08;12.9;74.2
78541;SHT31;67835;51.968;5.646;2023-02-18T02:15:45;12.9;74.3
78541;SHT31;67835;51.968;5.646;2023-02-18T02:18:50;12.9;74.3
78541;SHT31;67835;51.968;5.646;2023-02-18T02:23:19;12.9;74.4
78541;SHT31;67835;51.968;5.646;2023-02-18T02:26:58;12.9;74.7
78541;SHT31;67835;51.968;5.646;2023-02-18T02:30:10;12.9;75.0
78541;SHT31;67835;51.968;5.646;2023-02-18T02:32:59;13.0;75.2
78541;SHT31;67835;51.968;5.646;2023-02-18T02:35:39;13.0;75.2
78541;SHT31;67835;51.968;5.646;2023-02-18T02:38:18;13.0;75.3
78541;SHT31;67835;51.968;5.646;2023-02-18T02:40:58;13.0;75.4
78541;SHT31;67835;51.968;5.646;2023-02-18T02:43:40;13.0;75.5
78541;SHT31;67835;51.968;5.646;2023-02-18T02:46:18;13.0;75.7
78541;SHT31;67835;51.968;5.646;2023-02-18T02:48:56;13.0;75.8
78541;SHT31;67835;51.968;5.646;2023-02-18T02:51:37;13.0;75.8
78541;SHT31;67835;51.968;5.646;2023-02-18T02:54:14;13.1;76.2
78541;SHT31;67835;51.968;5.646;2023-02-18T02:56:46;13.1;75.9
78541;SHT31;67835;51.968;5.646;2023-02-18T02:59:20;13.2;75.3
78541;SHT31;67835;51.968;5.646;2023-02-18T03:02:06;13.2;75.2
78541;SHT31;67835;51.968;5.646;2023-02-18T03:05:33;13.3;75.1
78541;SHT31;67835;51.968;5.646;2023-02-18T03:08:24;13.3;74.9
78541;SHT31;67835;51.968;5.646;2023-02-18T03:11:03;13.3;75.0
78541;SHT31;67835;51.968;5.646;2023-02-18T03:13:46;13.3;75.2
78541;SHT31;67835;51.968;5.646;2023-02-18T03:16:31;13.3;75.4
78541;SHT31;67835;51.968;5.646;2023-02-18T03:19:09;13.3;75.5
78541;SHT31;67835;51.968;5.646;2023-02-18T03:21:46;13.3;75.6
78541;SHT31;67835;51.968;5.646;2023-02-18T03:24:25;13.2;75.8
78541;SHT31;67835;51.968;5.646;2023-02-18T03:27:01;13.2;76.0
78541;SHT31;67835;51.968;5.646;2023-02-18T03:29:34;13.2;76.1
78541;SHT31;67835;51.968;5.646;2023-02-18T03:32:08;13.2;76.3
78541;SHT31;67835;51.968;5.646;2023-02-18T03:34:42;13.1;76.5
78541;SHT31;67835;51.968;5.646;2023-02-18T03:37:14;13.1;76.7
78541;SHT31;67835;51.968;5.646;2023-02-18T03:39:48;13.1;77.0
78541;SHT31;67835;51.968;5.646;2023-02-18T03:42:18;13.1;76.9
78541;SHT31;67835;51.968;5.646;2023-02-18T03:44:48;13.1;76.9
78541;SHT31;67835;51.968;5.646;2023-02-18T03:47:17;13.1;77.0
78541;SHT31;67835;51.968;5.646;2023-02-18T03:49:47;13.1;77.2
78541;SHT31;67835;51.968;5.646;2023-02-18T03:52:20;13.1;77.2
78541;SHT31;67835;51.968;5.646;2023-02-18T03:54:50;13.1;77.6
78541;SHT31;67835;51.968;5.646;2023-02-18T03:57:21;13.1;77.5
78541;SHT31;67835;51.968;5.646;2023-02-18T03:59:50;13.2;77.1
78541;SHT31;67835;51.968;5.646;2023-02-18T04:02:20;13.2;77.0
78541;SHT31;67835;51.968;5.646;2023-02-18T04:04:50;13.2;77.1
78541;SHT31;67835;51.968;5.646;2023-02-18T04:07:20;13.1;77.1
78541;SHT31;67835;51.968;5.646;2023-02-18T04:09:51;13.1;77.3
78541;SHT31;67835;51.968;5.646;2023-02-18T04:12:25;13.1;77.5
78541;SHT31;67835;51.968;5.646;2023-02-18T04:14:55;13.1;77.7
78541;SHT31;67835;51.968;5.646;2023-02-18T04:17:25;13.1;77.8
78541;SHT31;67835;51.968;5.646;2023-02-18T04:19:57;13.1;78.0
78541;SHT31;67835;51.968;5.646;2023-02-18T04:22:26;13.0;78.1
78541;SHT31;67835;51.968;5.646;2023-02-18T04:24:56;13.0;78.1
78541;SHT31;67835;51.968;5.646;2023-02-18T04:27:27;13.0;78.2
78541;SHT31;67835;51.968;5.646;2023-02-18T04:29:56;13.0;78.5
78541;SHT31;67835;51.968;5.646;2023-02-18T04:32:26;13.0;78.5
78541;SHT31;67835;51.968;5.646;2023-02-18T04:34:56;13.0;78.6
78541;SHT31;67835;51.968;5.646;2023-02-18T04:37:26;13.0;78.7
78541;SHT31;67835;51.968;5.646;2023-02-18T04:39:55;13.0;78.7
78541;SHT31;67835;51.968;5.646;2023-02-18T04:42:25;12.9;78.7
78541;SHT31;67835;51.968;5.646;2023-02-18T04:44:55;12.9;78.8
78541;SHT31;67835;51.968;5.646;2023-02-18T04:47:24;12.9;78.9
78541;SHT31;67835;51.968;5.646;2023-02-18T04:49:54;12.9;79.0
78541;SHT31;67835;51.968;5.646;2023-02-18T04:52:27;12.9;79.0
78541;SHT31;67835;51.968;5.646;2023-02-18T04:54:57;12.9;79.0
78541;SHT31;67835;51.968;5.646;2023-02-18T04:57:27;12.9;79.1
78541;SHT31;67835;51.968;5.646;2023-02-18T04:59:56;12.9;79.2
78541;SHT31;67835;51.968;5.646;2023-02-18T05:02:26;12.9;79.0
78541;SHT31;67835;51.968;5.646;2023-02-18T05:04:55;12.9;79.0
78541;SHT31;67835;51.968;5.646;2023-02-18T05:07:26;12.9;79.2
78541;SHT31;67835;51.968;5.646;2023-02-18T05:09:56;12.9;78.9
78541;SHT31;67835;51.968;5.646;2023-02-18T05:12:26;12.9;79.0
78541;SHT31;67835;51.968;5.646;2023-02-18T05:14:56;12.9;79.0
78541;SHT31;67835;51.968;5.646;2023-02-18T05:17:28;12.9;79.0
78541;SHT31;67835;51.968;5.646;2023-02-18T05:19:57;12.9;79.0
78541;SHT31;67835;51.968;5.646;2023-02-18T05:22:29;12.9;79.0
78541;SHT31;67835;51.968;5.646;2023-02-18T05:25:00;12.9;78.7
78541;SHT31;67835;51.968;5.646;2023-02-18T05:27:30;12.9;78.6
78541;SHT31;67835;51.968;5.646;2023-02-18T05:30:00;12.8;78.6
78541;SHT31;67835;51.968;5.646;2023-02-18T05:32:30;12.8;78.6
78541;SHT31;67835;51.968;5.646;2023-02-18T05:35:00;12.8;78.6
78541;SHT31;67835;51.968;5.646;2023-02-18T05:37:30;12.8;78.7
78541;SHT31;67835;51.968;5.646;2023-02-18T05:40:02;12.8;78.9
78541;SHT31;67835;51.968;5.646;2023-02-18T05:42:32;12.8;78.8
78541;SHT31;67835;51.968;5.646;2023-02-18T05:45:03;12.8;77.7
78541;SHT31;67835;51.968;5.646;2023-02-18T05:47:33;12.9;77.4
78541;SHT31;67835;51.968;5.646;2023-02-18T05:50:04;12.9;77.1
78541;SHT31;67835;51.968;5.646;2023-02-18T05:52:35;12.9;77.0
78541;SHT31;67835;51.968;5.646;2023-02-18T05:55:06;12.9;76.7
78541;SHT31;67835;51.968;5.646;2023-02-18T05:57:36;12.9;77.2
78541;SHT31;67835;51.968;5.646;2023-02-18T06:00:17;13.0;77.1
78541;SHT31;67835;51.968;5.646;2023-02-18T06:02:48;13.1;76.5
78541;SHT31;67835;51.968;5.646;2023-02-18T06:05:20;13.1;76.1
78541;SHT31;67835;51.968;5.646;2023-02-18T06:07:50;13.1;75.9
78541;SHT31;67835;51.968;5.646;2023-02-18T06:10:20;13.1;75.8
78541;SHT31;67835;51.968;5.646;2023-02-18T06:12:50;13.1;75.5
78541;SHT31;67835;51.968;5.646;2023-02-18T06:15:20;13.1;75.7
78541;SHT31;67835;51.968;5.646;2023-02-18T06:17:50;13.0;75.5
78541;SHT31;67835;51.968;5.646;2023-02-18T06:20:20;13.0;75.7
78541;SHT31;67835;51.968;5.646;2023-02-18T06:22:50;13.0;75.5
78541;SHT31;67835;51.968;5.646;2023-02-18T06:25:20;13.0;75.8
78541;SHT31;67835;51.968;5.646;2023-02-18T06:27:50;13.0;76.0
78541;SHT31;67835;51.968;5.646;2023-02-18T06:30:20;13.0;76.2
78541;SHT31;67835;51.968;5.646;2023-02-18T06:32:50;12.9;76.1
78541;SHT31;67835;51.968;5.646;2023-02-18T06:35:20;12.9;76.1
78541;SHT31;67835;51.968;5.646;2023-02-18T06:37:50;12.9;76.3
78541;SHT31;67835;51.968;5.646;2023-02-18T06:40:23;12.9;76.3
78541;SHT31;67835;51.968;5.646;2023-02-18T06:42:54;12.9;76.5
78541;SHT31;67835;51.968;5.646;2023-02-18T06:45:24;12.9;76.6
78541;SHT31;67835;51.968;5.646;2023-02-18T06:47:54;12.9;76.5
78541;SHT31;67835;51.968;5.646;2023-02-18T06:50:24;12.9;76.6
78541;SHT31;67835;51.968;5.646;2023-02-18T06:52:56;12.9;76.7
78541;SHT31;67835;51.968;5.646;2023-02-18T06:55:26;12.9;76.4
78541;SHT31;67835;51.968;5.646;2023-02-18T06:57:55;12.9;76.5
78541;SHT31;67835;51.968;5.646;2023-02-18T07:00:28;12.9;76.6
78541;SHT31;67835;51.968;5.646;2023-02-18T07:02:59;12.9;76.3
78541;SHT31;67835;51.968;5.646;2023-02-18T07:05:30;13.0;75.8
78541;SHT31;67835;51.968;5.646;2023-02-18T07:08:00;13.0;75.8
78541;SHT31;67835;51.968;5.646;2023-02-18T07:10:31;13.1;75.1
78541;SHT31;67835;51.968;5.646;2023-02-18T07:13:01;13.1;74.6
78541;SHT31;67835;51.968;5.646;2023-02-18T07:15:31;13.1;74.4
78541;SHT31;67835;51.968;5.646;2023-02-18T07:18:02;13.0;74.3
78541;SHT31;67835;51.968;5.646;2023-02-18T07:20:32;13.0;74.3
78541;SHT31;67835;51.968;5.646;2023-02-18T07:23:02;13.0;74.2
78541;SHT31;67835;51.968;5.646;2023-02-18T07:25:34;13.0;74.5
78541;SHT31;67835;51.968;5.646;2023-02-18T07:28:03;13.0;74.3
78541;SHT31;67835;51.968;5.646;2023-02-18T07:30:34;12.9;74.3
78541;SHT31;67835;51.968;5.646;2023-02-18T07:33:04;12.9;74.2
78541;SHT31;67835;51.968;5.646;2023-02-18T07:35:38;12.9;74.4
78541;SHT31;67835;51.968;5.646;2023-02-18T07:38:08;12.9;74.1
78541;SHT31;67835;51.968;5.646;2023-02-18T07:40:40;12.9;74.5
78541;SHT31;67835;51.968;5.646;2023-02-18T07:43:09;12.8;74.4
78541;SHT31;67835;51.968;5.646;2023-02-18T07:45:39;12.8;74.6
78541;SHT31;67835;51.968;5.646;2023-02-18T07:48:10;12.8;74.4
78541;SHT31;67835;51.968;5.646;2023-02-18T07:50:43;12.8;74.7
78541;SHT31;67835;51.968;5.646;2023-02-18T07:53:14;12.7;74.4
78541;SHT31;67835;51.968;5.646;2023-02-18T07:55:44;12.7;73.9
78541;SHT31;67835;51.968;5.646;2023-02-18T07:58:22;12.7;73.7
78541;SHT31;67835;51.968;5.646;2023-02-18T08:00:54;12.7;73.7
78541;SHT31;67835;51.968;5.646;2023-02-18T08:03:29;12.7;73.3
78541;SHT31;67835;51.968;5.646;2023-02-18T08:06:04;12.7;74.2
78541;SHT31;67835;51.968;5.646;2023-02-18T08:08:35;12.8;72.9
78541;SHT31;67835;51.968;5.646;2023-02-18T08:11:05;12.9;72.2
78541;SHT31;67835;51.968;5.646;2023-02-18T08:13:37;12.9;71.6
78541;SHT31;67835;51.968;5.646;2023-02-18T08:16:08;12.9;70.3
78541;SHT31;67835;51.968;5.646;2023-02-18T08:18:39;12.9;70.5
78541;SHT31;67835;51.968;5.646;2023-02-18T08:21:09;12.9;70.4
78541;SHT31;67835;51.968;5.646;2023-02-18T08:23:41;12.9;70.5
78541;SHT31;67835;51.968;5.646;2023-02-18T08:26:12;12.9;69.8
78541;SHT31;67835;51.968;5.646;2023-02-18T08:28:44;13.0;69.4
78541;SHT31;67835;51.968;5.646;2023-02-18T08:31:19;13.0;70.5
78541;SHT31;67835;51.968;5.646;2023-02-18T08:33:52;13.0;69.9
78541;SHT31;67835;51.968;5.646;2023-02-18T08:36:29;13.0;70.2
78541;SHT31;67835;51.968;5.646;2023-02-18T08:39:01;13.0;70.3
78541;SHT31;67835;51.968;5.646;2023-02-18T08:41:31;13.1;69.8
78541;SHT31;67835;51.968;5.646;2023-02-18T08:44:01;13.1;69.0
78541;SHT31;67835;51.968;5.646;2023-02-18T08:46:34;13.1;69.4
78541;SHT31;67835;51.968;5.646;2023-02-18T08:49:04;13.1;69.2
78541;SHT31;67835;51.968;5.646;2023-02-18T08:51:35;13.1;69.0
78541;SHT31;67835;51.968;5.646;2023-02-18T08:54:07;13.1;68.7
78541;SHT31;67835;51.968;5.646;2023-02-18T08:56:38;13.1;68.3
78541;SHT31;67835;51.968;5.646;2023-02-18T08:59:08;13.1;68.6
78541;SHT31;67835;51.968;5.646;2023-02-18T09:01:38;13.0;69.9
78541;SHT31;67835;51.968;5.646;2023-02-18T09:04:08;13.0;69.8
78541;SHT31;67835;51.968;5.646;2023-02-18T09:06:39;12.9;70.3
78541;SHT31;67835;51.968;5.646;2023-02-18T09:09:11;12.9;69.9
78541;SHT31;67835;51.968;5.646;2023-02-18T09:11:48;12.9;70.1
78541;SHT31;67835;51.968;5.646;2023-02-18T09:14:29;12.9;70.7
78541;SHT31;67835;51.968;5.646;2023-02-18T09:17:00;12.8;70.4
78541;SHT31;67835;51.968;5.646;2023-02-18T09:19:30;12.8;71.1
78541;SHT31;67835;51.968;5.646;2023-02-18T09:22:00;12.8;70.8
78541;SHT31;67835;51.968;5.646;2023-02-18T09:24:35;12.7;71.1
78541;SHT31;67835;51.968;5.646;2023-02-18T09:27:07;12.7;71.0
78541;SHT31;67835;51.968;5.646;2023-02-18T09:29:40;12.7;71.0
78541;SHT31;67835;51.968;5.646;2023-02-18T09:32:12;12.7;71.2
78541;SHT31;67835;51.968;5.646;2023-02-18T09:34:45;12.7;71.2
78541;SHT31;67835;51.968;5.646;2023-02-18T09:37:17;12.7;71.0
78541;SHT31;67835;51.968;5.646;2023-02-18T09:39:51;12.7;71.2
78541;SHT31;67835;51.968;5.646;2023-02-18T09:42:28;12.7;70.4
78541;SHT31;67835;51.968;5.646;2023-02-18T09:45:03;12.7;70.9
78541;SHT31;67835;51.968;5.646;2023-02-18T09:47:37;12.7;70.5
78541;SHT31;67835;51.968;5.646;2023-02-18T09:50:19;12.7;70.6
78541;SHT31;67835;51.968;5.646;2023-02-18T09:52:52;12.8;70.4
78541;SHT31;67835;51.968;5.646;2023-02-18T09:55:27;12.8;70.4
78541;SHT31;67835;51.968;5.646;2023-02-18T09:58:03;12.8;69.9
78541;SHT31;67835;51.968;5.646;2023-02-18T10:00:37;12.8;69.4
78541;SHT31;67835;51.968;5.646;2023-02-18T10:03:13;12.9;69.8
78541;SHT31;67835;51.968;5.646;2023-02-18T10:05:55;12.9;69.2
78541;SHT31;67835;51.968;5.646;2023-02-18T10:08:33;12.9;69.2
78541;SHT31;67835;51.968;5.646;2023-02-18T10:11:10;12.9;69.2
78541;SHT31;67835;51.968;5.646;2023-02-18T10:13:45;12.9;68.8
78541;SHT31;67835;51.968;5.646;2023-02-18T10:16:22;13.0;69.1
78541;SHT31;67835;51.968;5.646;2023-02-18T10:18:57;13.1;68.8
78541;SHT31;67835;51.968;5.646;2023-02-18T10:21:31;13.1;68.8
78541;SHT31;67835;51.968;5.646;2023-02-18T10:24:09;13.2;68.2
78541;SHT31;67835;51.968;5.646;2023-02-18T10:26:41;13.2;67.8
78541;SHT31;67835;51.968;5.646;2023-02-18T10:29:18;13.2;67.3
78541;SHT31;67835;51.968;5.646;2023-02-18T10:31:53;13.2;67.3
78541;SHT31;67835;51.968;5.646;2023-02-18T10:34:38;13.1;68.0
78541;SHT31;67835;51.968;5.646;2023-02-18T10:37:24;13.1;68.5
78541;SHT31;67835;51.968;5.646;2023-02-18T10:40:05;13.1;68.2
78541;SHT31;67835;51.968;5.646;2023-02-18T10:42:49;13.1;68.5
78541;SHT31;67835;51.968;5.646;2023-02-18T10:45:30;13.0;69.4
78541;SHT31;67835;51.968;5.646;2023-02-18T10:48:18;13.0;69.6
78541;SHT31;67835;51.968;5.646;2023-02-18T10:50:50;13.0;69.5
78541;SHT31;67835;51.968;5.646;2023-02-18T10:53:32;12.9;69.8
78541;SHT31;67835;51.968;5.646;2023-02-18T10:56:05;12.9;69.6
78541;SHT31;67835;51.968;5.646;2023-02-18T10:58:45;12.9;70.4
78541;SHT31;67835;51.968;5.646;2023-02-18T11:01:18;12.8;70.1
78541;SHT31;67835;51.968;5.646;2023-02-18T11:03:51;12.8;70.4
78541;SHT31;67835;51.968;5.646;2023-02-18T11:06:30;12.8;70.2
78541;SHT31;67835;51.968;5.646;2023-02-18T11:09:04;12.8;70.6
78541;SHT31;67835;51.968;5.646;2023-02-18T11:11:38;12.8;70.9
78541;SHT31;67835;51.968;5.646;2023-02-18T11:14:35;12.8;71.1
78541;SHT31;67835;51.968;5.646;2023-02-18T11:16:47;12.8;70.8
78541;SHT31;67835;51.968;5.646;2023-02-18T11:19:34;12.8;70.9
78541;SHT31;67835;51.968;5.646;2023-02-18T11:22:22;12.8;71.1
78541;SHT31;67835;51.968;5.646;2023-02-18T11:24:58;13.0;70.9
78541;SHT31;67835;51.968;5.646;2023-02-18T11:27:34;13.1;70.4
78541;SHT31;67835;51.968;5.646;2023-02-18T11:30:20;13.2;69.7
78541;SHT31;67835;51.968;5.646;2023-02-18T11:32:56;13.4;69.6
78541;SHT31;67835;51.968;5.646;2023-02-18T11:35:31;13.4;68.9
78541;SHT31;67835;51.968;5.646;2023-02-18T11:38:22;13.5;68.9
78541;SHT31;67835;51.968;5.646;2023-02-18T11:41:36;13.5;68.7
78541;SHT31;67835;51.968;5.646;2023-02-18T11:44:19;13.6;68.2
78541;SHT31;67835;51.968;5.646;2023-02-18T11:47:00;13.6;68.2
78541;SHT31;67835;51.968;5.646;2023-02-18T11:49:33;13.7;68.5
78541;SHT31;67835;51.968;5.646;2023-02-18T11:52:16;13.7;68.7
78541;SHT31;67835;51.968;5.646;2023-02-18T11:55:02;13.8;67.9
78541;SHT31;67835;51.968;5.646;2023-02-18T11:57:35;13.8;68.3
78541;SHT31;67835;51.968;5.646;2023-02-18T12:00:15;13.8;68.3
78541;SHT31;67835;51.968;5.646;2023-02-18T12:02:48;13.8;68.8
78541;SHT31;67835;51.968;5.646;2023-02-18T12:05:21;13.8;69.0
78541;SHT31;67835;51.968;5.646;2023-02-18T12:08:00;13.7;69.2
78541;SHT31;67835;51.968;5.646;2023-02-18T12:10:35;13.7;70.1
78541;SHT31;67835;51.968;5.646;2023-02-18T12:13:16;13.7;70.1
78541;SHT31;67835;51.968;5.646;2023-02-18T12:15:55;13.6;69.7
78541;SHT31;67835;51.968;5.646;2023-02-18T12:18:40;13.6;70.8
78541;SHT31;67835;51.968;5.646;2023-02-18T12:21:37;13.5;70.4
78541;SHT31;67835;51.968;5.646;2023-02-18T12:24:18;13.5;70.1
78541;SHT31;67835;51.968;5.646;2023-02-18T12:27:01;13.5;69.8
78541;SHT31;67835;51.968;5.646;2023-02-18T12:29:54;13.5;70.0
78541;SHT31;67835;51.968;5.646;2023-02-18T12:32:38;13.6;70.1
78541;SHT31;67835;51.968;5.646;2023-02-18T12:35:39;13.6;69.0
78541;SHT31;67835;51.968;5.646;2023-02-18T12:38:26;13.6;69.5
78541;SHT31;67835;51.968;5.646;2023-02-18T12:42:38;13.6;68.6
78541;SHT31;67835;51.968;5.646;2023-02-18T12:45:27;13.6;68.9
78541;SHT31;67835;51.968;5.646;2023-02-18T12:48:19;13.6;69.0
78541;SHT31;67835;51.968;5.646;2023-02-18T12:51:13;13.6;68.9
78541;SHT31;67835;51.968;5.646;2023-02-18T12:54:01;13.6;69.2
78541;SHT31;67835;51.968;5.646;2023-02-18T12:57:00;13.6;68.8
78541;SHT31;67835;51.968;5.646;2023-02-18T12:59:53;13.6;68.7
78541;SHT31;67835;51.968;5.646;2023-02-18T13:02:47;13.6;68.4
78541;SHT31;67835;51.968;5.646;2023-02-18T13:05:29;13.6;69.1
78541;SHT31;67835;51.968;5.646;2023-02-18T13:08:20;13.6;68.9
78541;SHT31;67835;51.968;5.646;2023-02-18T13:11:03;13.6;68.8
78541;SHT31;67835;51.968;5.646;2023-02-18T13:13:40;13.6;68.9
78541;SHT31;67835;51.968;5.646;2023-02-18T13:16:15;13.6;69.1
78541;SHT31;67835;51.968;5.646;2023-02-18T13:18:57;13.6;68.9
78541;SHT31;67835;51.968;5.646;2023-02-18T13:21:30;13.7;68.9
78541;SHT31;67835;51.968;5.646;2023-02-18T13:24:05;13.7;68.9
78541;SHT31;67835;51.968;5.646;2023-02-18T13:26:38;13.7;68.6
78541;SHT31;67835;51.968;5.646;2023-02-18T13:29:21;13.7;69.1
78541;SHT31;67835;51.968;5.646;2023-02-18T13:32:05;13.7;68.8
78541;SHT31;67835;51.968;5.646;2023-02-18T13:34:43;13.8;69.1
78541;SHT31;67835;51.968;5.646;2023-02-18T13:37:24;13.8;69.2
78541;SHT31;67835;51.968;5.646;2023-02-18T13:39:57;13.9;69.2
78541;SHT31;67835;51.968;5.646;2023-02-18T13:42:36;13.9;69.0
78541;SHT31;67835;51.968;5.646;2023-02-18T13:45:29;14.0;68.5
78541;SHT31;67835;51.968;5.646;2023-02-18T13:47:59;14.1;68.4
78541;SHT31;67835;51.968;5.646;2023-02-18T13:50:37;14.1;67.8
78541;SHT31;67835;51.968;5.646;2023-02-18T13:53:22;14.1;67.3
78541;SHT31;67835;51.968;5.646;2023-02-18T13:55:59;14.2;66.9
78541;SHT31;67835;51.968;5.646;2023-02-18T13:58:35;14.2;67.1
78541;SHT31;67835;51.968;5.646;2023-02-18T14:01:19;14.2;67.1
78541;SHT31;67835;51.968;5.646;2023-02-18T14:03:55;14.2;67.0
78541;SHT31;67835;51.968;5.646;2023-02-18T14:06:28;14.2;67.1
78541;SHT31;67835;51.968;5.646;2023-02-18T14:10:25;14.2;66.7
78541;SHT31;67835;51.968;5.646;2023-02-18T14:13:22;14.2;66.6
78541;SHT31;67835;51.968;5.646;2023-02-18T14:15:59;14.2;66.8
78541;SHT31;67835;51.968;5.646;2023-02-18T14:18:58;14.2;66.7
78541;SHT31;67835;51.968;5.646;2023-02-18T14:21:38;14.2;67.2
78541;SHT31;67835;51.968;5.646;2023-02-18T14:24:10;14.1;67.1
78541;SHT31;67835;51.968;5.646;2023-02-18T14:26:43;14.1;67.1
78541;SHT31;67835;51.968;5.646;2023-02-18T14:29:26;14.1;67.2
78541;SHT31;67835;51.968;5.646;2023-02-18T14:32:01;14.1;67.5
78541;SHT31;67835;51.968;5.646;2023-02-18T14:35:00;14.1;66.8
78541;SHT31;67835;51.968;5.646;2023-02-18T14:38:28;14.2;67.6
78541;SHT31;67835;51.968;5.646;2023-02-18T14:43:16;14.2;67.2
78541;SHT31;67835;51.968;5.646;2023-02-18T14:46:07;14.3;66.6
78541;SHT31;67835;51.968;5.646;2023-02-18T14:48:54;14.3;66.7
78541;SHT31;67835;51.968;5.646;2023-02-18T14:51:29;14.3;66.6
78541;SHT31;67835;51.968;5.646;2023-02-18T14:54:05;14.3;66.4
78541;SHT31;67835;51.968;5.646;2023-02-18T14:56:50;14.3;66.4
78541;SHT31;67835;51.968;5.646;2023-02-18T14:59:24;14.3;66.3
78541;SHT31;67835;51.968;5.646;2023-02-18T15:01:56;14.3;66.2
78541;SHT31;67835;51.968;5.646;2023-02-18T15:04:26;14.3;66.7
78541;SHT31;67835;51.968;5.646;2023-02-18T15:07:01;14.3;67.0
78541;SHT31;67835;51.968;5.646;2023-02-18T15:09:31;14.3;66.7
78541;SHT31;67835;51.968;5.646;2023-02-18T15:12:02;14.3;66.5
78541;SHT31;67835;51.968;5.646;2023-02-18T15:14:38;14.3;66.8
78541;SHT31;67835;51.968;5.646;2023-02-18T15:17:15;14.3;66.9
78541;SHT31;67835;51.968;5.646;2023-02-18T15:19:49;14.2;66.6
78541;SHT31;67835;51.968;5.646;2023-02-18T15:22:21;14.2;66.6
78541;SHT31;67835;51.968;5.646;2023-02-18T15:24:55;14.2;66.6
78541;SHT31;67835;51.968;5.646;2023-02-18T15:27:28;14.2;66.8
78541;SHT31;67835;51.968;5.646;2023-02-18T15:30:04;14.2;67.0
78541;SHT31;67835;51.968;5.646;2023-02-18T15:32:37;14.2;67.0
78541;SHT31;67835;51.968;5.646;2023-02-18T15:35:16;14.2;67.2
78541;SHT31;67835;51.968;5.646;2023-02-18T15:37:51;14.2;67.3
78541;SHT31;67835;51.968;5.646;2023-02-18T15:40:26;14.2;67.2
78541;SHT31;67835;51.968;5.646;2023-02-18T15:42:59;14.1;67.1
78541;SHT31;67835;51.968;5.646;2023-02-18T15:45:33;14.1;67.0
78541;SHT31;67835;51.968;5.646;2023-02-18T15:48:04;14.1;67.0
78541;SHT31;67835;51.968;5.646;2023-02-18T15:50:37;14.1;66.8
78541;SHT31;67835;51.968;5.646;2023-02-18T15:53:15;14.1;67.1
78541;SHT31;67835;51.968;5.646;2023-02-18T15:55:49;14.1;67.3
78541;SHT31;67835;51.968;5.646;2023-02-18T15:58:26;14.1;67.2
78541;SHT31;67835;51.968;5.646;2023-02-18T16:00:59;14.0;67.3
78541;SHT31;67835;51.968;5.646;2023-02-18T16:03:31;14.0;67.4
78541;SHT31;67835;51.968;5.646;2023-02-18T16:06:16;14.0;67.3
78541;SHT31;67835;51.968;5.646;2023-02-18T16:08:59;14.0;67.7
78541;SHT31;67835;51.968;5.646;2023-02-18T16:11:34;14.0;67.7
78541;SHT31;67835;51.968;5.646;2023-02-18T16:14:19;14.0;67.7
78541;SHT31;67835;51.968;5.646;2023-02-18T16:17:06;13.9;67.9
78541;SHT31;67835;51.968;5.646;2023-02-18T16:19:49;13.9;67.9
78541;SHT31;67835;51.968;5.646;2023-02-18T16:22:35;13.9;67.8
78541;SHT31;67835;51.968;5.646;2023-02-18T16:25:15;13.9;68.0
78541;SHT31;67835;51.968;5.646;2023-02-18T16:27:50;13.9;67.8
78541;SHT31;67835;51.968;5.646;2023-02-18T16:30:24;13.9;68.0
78541;SHT31;67835;51.968;5.646;2023-02-18T16:32:56;13.8;68.1
78541;SHT31;67835;51.968;5.646;2023-02-18T16:35:29;13.8;68.0
78541;SHT31;67835;51.968;5.646;2023-02-18T16:37:59;13.8;68.3
78541;SHT31;67835;51.968;5.646;2023-02-18T16:40:32;13.8;68.1
78541;SHT31;67835;51.968;5.646;2023-02-18T16:43:11;13.8;68.2
78541;SHT31;67835;51.968;5.646;2023-02-18T16:45:43;13.8;68.1
78541;SHT31;67835;51.968;5.646;2023-02-18T16:48:18;13.8;68.2
78541;SHT31;67835;51.968;5.646;2023-02-18T16:50:49;13.9;68.2
78541;SHT31;67835;51.968;5.646;2023-02-18T16:53:20;13.9;67.8
78541;SHT31;67835;51.968;5.646;2023-02-18T16:55:50;14.0;67.6
78541;SHT31;67835;51.968;5.646;2023-02-18T16:58:20;14.0;67.0
78541;SHT31;67835;51.968;5.646;2023-02-18T17:00:50;14.0;67.0
78541;SHT31;67835;51.968;5.646;2023-02-18T17:03:21;13.9;67.1